Search for airport 
image banner adimage banner adimage banner ad
image banner ad

CA764 - Arctic Red River (Ces6)

Located in , Canada

ICAO - , IATA -

Data provided by Airmate  

General information

Coordinates: N67°27'0" W133°45'0"
Elevation is feet MSL.
 
View others Airports in Northwest Territories

Operational data

Special qualification required
Current time UTC:
Current local time:
Weather at : CZFM - Fort Mcpherson ( 48 km )
METAR: CZFM 221600Z 06003KT 040V120 35SM BKN150 M07/M08 A2932 RMK AS7 SLP934
View NOTAMs / SUP AIP / TFR affecting this airport [VIEW]
Communications frequencies: [VIEW]

Runways:

Airport contact information

Address: Canada

Satellite view of CA764